Time;durP1;ratioP1;P1;durP2;ratioP2;P2;SDS_P1;SDS_P2;PMS_P1;PMS_P2;Temp;Humidity;BMP_temperature;BMP_pressure;BME280_temperature;BME280_humidity;BME280_pressure;Samples;Min_cycle;Max_cycle;Signal;HPM_P1;HPM_P2
2022/04/16 00:03:25;;;;;;;3.28;0.80;;;10.40;99.00;;;;;;10317076;28;20050;-57
2022/04/16 00:08:29;;;;;;;1.65;0.85;;;10.40;99.50;;;;;;10328255;28;20096;-57
2022/04/16 00:13:32;;;;;;;2.55;1.05;;;10.40;99.90;;;;;;10310929;28;20052;-57
2022/04/16 00:18:34;;;;;;;2.65;1.13;;;10.40;99.90;;;;;;10315519;28;20049;-57
2022/04/16 00:23:37;;;;;;;2.20;0.95;;;10.40;99.90;;;;;;10317159;28;20073;-57
2022/04/16 00:28:39;;;;;;;3.60;1.55;;;10.40;99.90;;;;;;10328664;28;20089;-57
2022/04/16 00:33:41;;;;;;;4.68;1.13;;;10.40;99.90;;;;;;10310761;28;20468;-60
2022/04/16 00:38:43;;;;;;;2.75;1.27;;;10.50;99.90;;;;;;10322779;28;20389;-59
2022/04/16 00:43:44;;;;;;;1.85;1.15;;;10.50;99.90;;;;;;10328375;28;20046;-56
2022/04/16 00:48:46;;;;;;;3.95;1.30;;;10.50;99.90;;;;;;10323867;28;20047;-57
2022/04/16 00:53:48;;;;;;;3.47;1.30;;;10.50;99.90;;;;;;10307383;28;20105;-57
2022/04/16 00:58:50;;;;;;;3.33;1.40;;;10.50;99.90;;;;;;10329602;28;20574;-57
2022/04/16 01:03:52;;;;;;;3.10;1.35;;;10.50;99.90;;;;;;10319648;28;20057;-59
2022/04/16 01:08:54;;;;;;;3.40;1.55;;;10.50;99.90;;;;;;10332143;28;20058;-56
2022/04/16 01:13:56;;;;;;;3.13;1.40;;;10.50;99.90;;;;;;10321978;28;20113;-56
2022/04/16 01:18:58;;;;;;;3.22;1.65;;;10.50;99.90;;;;;;10318292;28;20105;-57
2022/04/16 01:23:59;;;;;;;3.55;1.80;;;10.50;99.90;;;;;;10302578;28;20054;-57
2022/04/16 01:29:02;;;;;;;3.40;2.00;;;10.50;99.90;;;;;;10311893;28;20382;-57
2022/04/16 01:34:04;;;;;;;4.10;1.92;;;10.40;99.90;;;;;;10326217;28;20089;-57
2022/04/16 01:39:07;;;;;;;5.03;2.33;;;10.40;99.90;;;;;;10327771;28;20550;-56
2022/04/16 01:44:09;;;;;;;6.32;2.30;;;10.40;99.90;;;;;;10310609;28;20583;-57
2022/04/16 01:49:10;;;;;;;4.85;2.15;;;10.40;99.90;;;;;;10318766;28;20547;-57
2022/04/16 01:54:12;;;;;;;3.25;2.10;;;10.40;99.90;;;;;;10329410;28;20046;-57
2022/04/16 01:59:14;;;;;;;5.53;2.25;;;10.40;99.90;;;;;;10330960;28;20053;-57
2022/04/16 02:04:15;;;;;;;5.18;2.25;;;10.30;99.90;;;;;;10303659;28;20043;-57
2022/04/16 02:09:17;;;;;;;7.35;2.08;;;10.40;99.90;;;;;;10323947;28;20059;-57
2022/04/16 02:14:21;;;;;;;4.88;2.00;;;10.40;99.90;;;;;;10326521;28;20713;-57
2022/04/16 02:19:23;;;;;;;6.18;2.42;;;10.40;99.90;;;;;;10323272;28;20511;-56
2022/04/16 02:24:25;;;;;;;6.85;2.95;;;10.30;99.90;;;;;;10304142;28;20046;-57
2022/04/16 02:29:27;;;;;;;5.75;2.67;;;10.30;99.90;;;;;;10324914;28;20052;-57
2022/04/16 02:34:29;;;;;;;6.53;2.83;;;10.20;99.90;;;;;;10320935;28;20042;-57
2022/04/16 02:39:30;;;;;;;6.07;2.38;;;10.20;99.90;;;;;;10312916;28;20039;-57
2022/04/16 02:49:52;;;;;;;7.80;3.42;;;10.10;99.90;;;;;;10323233;28;20042;-57
2022/04/16 02:54:54;;;;;;;8.50;3.53;;;10.10;99.90;;;;;;10331926;28;20058;-57
2022/04/16 02:59:55;;;;;;;5.45;3.30;;;10.10;99.90;;;;;;10323928;28;20515;-57
2022/04/16 03:04:57;;;;;;;8.52;3.50;;;10.10;99.90;;;;;;10324864;28;20055;-57
2022/04/16 03:09:59;;;;;;;9.63;3.65;;;10.10;99.90;;;;;;10309673;28;20041;-57
2022/04/16 03:20:24;;;;;;;8.90;4.07;;;10.20;99.90;;;;;;10323483;28;20104;-57
2022/04/16 03:25:30;;;;;;;10.40;4.47;;;10.20;99.90;;;;;;10307079;28;20096;-58
2022/04/16 03:30:31;;;;;;;12.10;4.57;;;10.20;99.90;;;;;;10323567;28;20405;-57
2022/04/16 03:35:34;;;;;;;12.07;4.47;;;10.10;99.90;;;;;;10315049;28;20104;-56
2022/04/16 03:40:36;;;;;;;8.48;3.72;;;10.10;99.90;;;;;;10319230;28;20046;-56
2022/04/16 03:45:37;;;;;;;8.60;4.20;;;10.10;99.90;;;;;;10330113;28;20065;-57
2022/04/16 03:50:40;;;;;;;8.98;4.18;;;10.10;99.90;;;;;;10321972;28;20567;-57
2022/04/16 04:01:03;;;;;;;9.50;4.30;;;10.10;99.90;;;;;;10311959;28;20493;-57
2022/04/16 04:06:05;;;;;;;12.07;4.55;;;10.10;99.90;;;;;;10316448;28;20054;-58
2022/04/16 04:11:06;;;;;;;6.82;3.40;;;10.20;99.90;;;;;;10319234;28;20050;-57
2022/04/16 04:16:08;;;;;;;10.35;4.32;;;10.10;99.90;;;;;;10316872;28;20050;-57
2022/04/16 04:21:10;;;;;;;12.55;4.65;;;10.00;99.90;;;;;;10315689;28;20050;-57
2022/04/16 04:26:12;;;;;;;12.43;4.80;;;10.00;99.90;;;;;;10317439;28;20105;-57
2022/04/16 04:31:14;;;;;;;8.45;4.47;;;10.00;99.90;;;;;;10312393;28;20061;-63
2022/04/16 04:36:15;;;;;;;10.65;4.18;;;10.00;99.90;;;;;;10326242;28;20055;-61
2022/04/16 04:41:17;;;;;;;14.40;4.82;;;10.00;99.90;;;;;;10304686;28;20600;-62
2022/04/16 04:46:19;;;;;;;11.60;4.65;;;10.00;99.90;;;;;;10306630;28;20109;-63
2022/04/16 04:51:20;;;;;;;8.88;3.13;;;10.00;99.90;;;;;;10410132;22;20041;-87
2022/04/16 04:56:22;;;;;;;4.32;2.63;;;10.00;99.90;;;;;;10409940;28;20049;-87
2022/04/16 05:01:24;;;;;;;5.65;2.40;;;10.00;99.90;;;;;;10399162;28;20048;-87
2022/04/16 05:06:26;;;;;;;5.40;1.95;;;10.00;99.90;;;;;;10399076;28;20091;-88
2022/04/16 05:11:28;;;;;;;4.35;2.30;;;10.00;99.90;;;;;;10391422;28;20052;-88
2022/04/16 05:16:30;;;;;;;3.92;2.22;;;10.00;99.90;;;;;;10416538;28;20045;-88
2022/04/16 05:21:32;;;;;;;6.38;2.17;;;10.10;99.90;;;;;;10370157;28;20108;-88
2022/04/16 05:26:34;;;;;;;5.93;2.80;;;10.10;99.90;;;;;;10373261;28;20056;-87
2022/04/16 05:31:36;;;;;;;4.18;2.30;;;10.10;99.90;;;;;;10377281;28;20049;-87
2022/04/16 05:36:39;;;;;;;3.90;1.85;;;10.10;99.90;;;;;;10362162;28;20045;-87
2022/04/16 05:41:40;;;;;;;4.63;2.33;;;10.10;99.90;;;;;;10384467;28;20575;-87
2022/04/16 05:46:42;;;;;;;4.75;2.53;;;10.10;99.90;;;;;;10373152;28;20046;-87
2022/04/16 05:51:44;;;;;;;4.30;1.88;;;10.10;99.90;;;;;;10385145;28;20092;-87
2022/04/16 05:56:46;;;;;;;4.10;1.77;;;10.10;99.80;;;;;;10373332;28;20430;-87
2022/04/16 06:01:48;;;;;;;3.88;2.08;;;10.20;99.90;;;;;;10364037;28;20053;-87
2022/04/16 06:06:50;;;;;;;6.38;2.80;;;10.20;98.80;;;;;;10364695;28;20057;-87
2022/04/16 06:11:52;;;;;;;3.42;1.55;;;10.30;98.40;;;;;;10358690;28;20064;-87
2022/04/16 06:16:54;;;;;;;5.53;1.83;;;10.30;96.40;;;;;;10386341;28;20046;-87
2022/04/16 06:21:56;;;;;;;3.67;1.80;;;10.50;95.00;;;;;;10359616;28;20057;-87
2022/04/16 06:26:58;;;;;;;4.35;1.50;;;10.50;95.10;;;;;;10382205;28;20045;-87
2022/04/16 06:32:00;;;;;;;3.47;1.63;;;10.60;93.20;;;;;;10369597;28;20547;-88
2022/04/16 06:37:02;;;;;;;3.83;1.40;;;10.60;93.70;;;;;;10368618;28;20041;-88
2022/04/16 06:42:05;;;;;;;2.28;1.25;;;10.60;92.60;;;;;;10359951;28;20040;-87
2022/04/16 06:47:06;;;;;;;2.55;1.20;;;10.60;91.70;;;;;;10359901;28;20044;-87
2022/04/16 06:52:09;;;;;;;2.70;1.00;;;10.60;88.80;;;;;;10290724;28;20042;-88
2022/04/16 06:57:11;;;;;;;2.35;0.93;;;10.60;84.50;;;;;;10307806;28;20043;-87
2022/04/16 07:02:13;;;;;;;3.80;1.35;;;10.70;85.60;;;;;;10280847;28;20042;-88
2022/04/16 07:07:15;;;;;;;6.10;1.70;;;10.80;85.70;;;;;;10303605;28;20070;-87
2022/04/16 07:12:18;;;;;;;4.03;1.25;;;10.90;85.00;;;;;;10289672;28;20047;-88
2022/04/16 07:17:20;;;;;;;4.05;1.13;;;10.90;84.40;;;;;;10284002;28;20046;-87
2022/04/16 07:22:22;;;;;;;3.55;1.33;;;11.00;84.30;;;;;;10301256;28;20050;-87
2022/04/16 07:27:24;;;;;;;3.42;1.17;;;11.10;82.80;;;;;;10303081;28;20046;-87
2022/04/16 07:32:27;;;;;;;3.33;1.27;;;11.10;82.80;;;;;;10281927;28;20190;-87
2022/04/16 07:37:28;;;;;;;4.80;1.83;;;11.10;81.00;;;;;;10305521;28;20046;-88
2022/04/16 07:42:32;;;;;;;4.38;1.52;;;11.30;81.10;;;;;;10282425;28;20038;-88
2022/04/16 07:47:33;;;;;;;4.00;1.27;;;11.40;82.10;;;;;;10303522;28;20079;-87
2022/04/16 07:52:35;;;;;;;2.17;0.82;;;11.50;79.40;;;;;;10340903;28;20054;-88
2022/04/16 07:57:37;;;;;;;3.65;0.80;;;11.60;77.30;;;;;;10340637;28;20056;-88
2022/04/16 08:02:39;;;;;;;2.03;0.73;;;11.90;76.50;;;;;;10332803;28;20492;-87
2022/04/16 08:07:41;;;;;;;2.97;1.10;;;12.10;73.90;;;;;;10326863;28;20122;-88
2022/04/16 08:12:43;;;;;;;2.15;1.45;;;12.00;72.10;;;;;;10324310;28;20535;-88
2022/04/16 08:17:45;;;;;;;3.05;1.23;;;11.90;74.30;;;;;;10355018;28;20082;-88
2022/04/16 08:22:46;;;;;;;3.08;1.00;;;12.10;74.80;;;;;;10338069;28;20068;-88
2022/04/16 08:27:49;;;;;;;3.20;1.25;;;12.30;71.70;;;;;;10348966;28;20046;-88
2022/04/16 08:32:52;;;;;;;6.03;2.05;;;12.20;72.90;;;;;;10344266;28;20128;-88
2022/04/16 08:37:53;;;;;;;1.30;0.80;;;12.20;74.00;;;;;;10338120;28;20061;-88
2022/04/16 08:42:56;;;;;;;2.60;0.88;;;12.30;70.10;;;;;;10328333;28;20146;-87
2022/04/16 08:47:59;;;;;;;1.48;0.73;;;12.20;69.90;;;;;;10331607;28;20145;-88
2022/04/16 08:53:01;;;;;;;1.98;0.70;;;12.20;69.10;;;;;;10378429;28;20083;-88
2022/04/16 08:58:04;;;;;;;3.80;1.25;;;12.30;67.90;;;;;;10338860;28;20805;-88
2022/04/16 09:03:06;;;;;;;3.35;1.08;;;12.30;70.10;;;;;;10368633;28;20058;-88
2022/04/16 09:08:08;;;;;;;2.90;1.00;;;12.40;71.00;;;;;;10356721;28;20037;-88
2022/04/16 09:13:12;;;;;;;4.43;0.93;;;12.30;68.50;;;;;;10378978;28;20052;-88
2022/04/16 09:18:16;;;;;;;3.05;0.80;;;12.40;69.50;;;;;;10366836;28;20049;-88
2022/04/16 09:23:20;;;;;;;1.70;0.70;;;12.30;67.10;;;;;;10390243;28;20038;-88
2022/04/16 09:28:22;;;;;;;2.03;0.85;;;12.50;65.80;;;;;;10361204;28;20021;-87
2022/04/16 09:33:25;;;;;;;5.28;1.48;;;12.60;64.40;;;;;;10366044;28;20049;-88
2022/04/16 09:38:34;;;;;;;1.13;0.50;;;12.50;67.20;;;;;;10343120;28;20105;-87
2022/04/16 09:43:37;;;;;;;1.10;0.52;;;12.50;66.00;;;;;;10355705;28;20084;-88
2022/04/16 09:48:39;;;;;;;4.20;0.50;;;12.40;65.10;;;;;;10367689;28;20048;-87
2022/04/16 09:53:43;;;;;;;2.97;0.55;;;12.50;65.30;;;;;;10367527;28;20050;-87
2022/04/16 09:58:54;;;;;;;2.05;0.60;;;12.80;62.30;;;;;;10382139;28;20052;-88
2022/04/16 10:03:57;;;;;;;2.40;0.60;;;12.80;62.00;;;;;;10357527;28;20045;-87
2022/04/16 10:09:13;;;;;;;1.17;0.52;;;12.90;62.20;;;;;;10361958;28;20152;-88
2022/04/16 10:14:48;;;;;;;1.10;0.52;;;12.90;61.30;;;;;;10354389;28;20090;-87
2022/04/16 10:19:54;;;;;;;1.85;0.40;;;13.10;60.60;;;;;;10353623;28;20600;-88
2022/04/16 10:24:59;;;;;;;1.27;0.40;;;13.10;60.00;;;;;;10384834;28;20068;-88
2022/04/16 10:30:09;;;;;;;1.65;0.50;;;13.10;60.40;;;;;;10354314;28;20030;-87
2022/04/16 10:35:16;;;;;;;1.33;0.45;;;13.40;59.30;;;;;;10350766;28;20045;-88
2022/04/16 10:40:22;;;;;;;3.30;0.37;;;13.60;57.70;;;;;;10377086;28;20056;-89
2022/04/16 10:45:24;;;;;;;1.08;0.30;;;13.80;56.30;;;;;;10364504;28;20049;-88
2022/04/16 10:50:26;;;;;;;0.88;0.20;;;14.00;51.40;;;;;;10342118;28;20054;-87
2022/04/16 10:55:32;;;;;;;1.23;0.20;;;14.30;50.10;;;;;;10344292;28;20085;-87
2022/04/16 11:00:45;;;;;;;0.30;0.30;;;14.50;48.80;;;;;;10363807;28;20132;-87
2022/04/16 11:05:47;;;;;;;0.50;0.20;;;14.50;47.00;;;;;;10372167;28;20049;-87
2022/04/16 11:11:02;;;;;;;1.77;0.30;;;14.90;48.00;;;;;;10370337;28;20046;-87
2022/04/16 11:16:08;;;;;;;0.20;0.20;;;15.00;47.50;;;;;;10365283;28;20089;-88
2022/04/16 11:21:19;;;;;;;0.30;0.20;;;15.10;47.50;;;;;;10372731;28;20035;-88
2022/04/16 11:37:13;;;;;;;0.70;0.30;;;15.70;43.90;;;;;;10374858;28;20042;-88
2022/04/16 11:42:15;;;;;;;1.33;0.22;;;15.70;43.40;;;;;;10360286;28;20133;-88
2022/04/16 11:47:22;;;;;;;1.23;0.30;;;15.90;45.00;;;;;;10366530;28;20077;-88
2022/04/16 11:52:29;;;;;;;0.30;0.20;;;16.00;45.00;;;;;;10349178;28;20412;-88
2022/04/16 11:57:32;;;;;;;0.30;0.28;;;16.10;43.90;;;;;;10381178;28;20041;-88
2022/04/16 12:02:36;;;;;;;0.40;0.20;;;16.30;43.10;;;;;;10357543;28;20064;-88
2022/04/16 12:07:46;;;;;;;2.35;0.30;;;16.40;42.80;;;;;;10378953;28;20048;-88
2022/04/16 12:12:54;;;;;;;0.77;0.20;;;16.40;41.70;;;;;;10363361;28;20037;-88
2022/04/16 12:17:57;;;;;;;0.50;0.22;;;16.60;41.70;;;;;;10360455;28;20046;-88
2022/04/16 12:23:03;;;;;;;3.30;0.20;;;16.80;41.60;;;;;;10358621;28;20056;-88
2022/04/16 12:28:11;;;;;;;0.30;0.10;;;16.90;41.10;;;;;;10366808;28;20128;-87
2022/04/16 12:33:12;;;;;;;0.40;0.20;;;17.10;40.60;;;;;;10382804;28;20057;-87
2022/04/16 12:38:17;;;;;;;1.85;0.20;;;17.10;39.90;;;;;;10381349;28;20073;-87
2022/04/16 12:43:19;;;;;;;1.40;0.20;;;17.30;38.10;;;;;;10356043;28;20484;-88
2022/04/16 12:48:21;;;;;;;0.75;0.10;;;17.40;38.80;;;;;;10354500;28;20052;-87
2022/04/16 12:53:24;;;;;;;0.10;0.10;;;17.80;38.90;;;;;;10349667;28;20045;-87
2022/04/16 12:58:29;;;;;;;0.88;0.17;;;17.80;37.60;;;;;;10371494;28;20121;-88
2022/04/16 13:03:31;;;;;;;1.13;0.20;;;18.30;36.80;;;;;;10373469;28;20025;-87
2022/04/16 13:08:33;;;;;;;0.55;0.10;;;18.20;36.00;;;;;;10363295;28;20054;-88
2022/04/16 13:13:36;;;;;;;0.77;0.13;;;18.70;37.10;;;;;;10363151;28;20491;-88
2022/04/16 13:18:38;;;;;;;0.30;0.10;;;18.60;36.50;;;;;;10380084;28;20049;-87
2022/04/16 13:23:40;;;;;;;0.38;0.10;;;18.70;36.60;;;;;;10370770;28;20059;-87
2022/04/16 13:28:41;;;;;;;0.30;0.20;;;19.00;36.90;;;;;;10346059;28;20057;-88
2022/04/16 13:33:43;;;;;;;0.30;0.10;;;19.20;34.40;;;;;;10353227;28;20060;-87
2022/04/16 13:38:45;;;;;;;0.52;0.20;;;19.30;34.90;;;;;;10371658;28;20050;-88
2022/04/16 13:43:47;;;;;;;0.30;0.10;;;19.60;34.40;;;;;;10376781;28;20049;-87
2022/04/16 13:48:51;;;;;;;0.68;0.10;;;19.50;33.20;;;;;;10360223;28;20072;-90
2022/04/16 13:54:00;;;;;;;2.75;0.10;;;19.80;34.20;;;;;;10362121;28;20054;-90
2022/04/16 13:59:02;;;;;;;0.20;0.10;;;20.10;33.90;;;;;;10369661;28;20069;-88
2022/04/16 14:04:04;;;;;;;0.68;0.35;;;19.70;33.70;;;;;;10374216;28;20054;-91
2022/04/16 14:09:06;;;;;;;2.63;0.20;;;19.80;33.50;;;;;;10371560;28;20037;-90
2022/04/16 14:14:08;;;;;;;0.20;0.10;;;20.10;32.70;;;;;;10379343;28;20044;-88
2022/04/16 14:19:11;;;;;;;0.55;0.10;;;20.10;31.60;;;;;;10382059;28;20117;-88
2022/04/16 14:24:20;;;;;;;0.77;0.10;;;20.10;32.50;;;;;;10359768;28;20132;-89
2022/04/16 14:29:22;;;;;;;0.85;0.15;;;20.20;34.30;;;;;;10375551;28;20045;-88
2022/04/16 14:34:42;;;;;;;1.70;0.15;;;20.20;32.10;;;;;;10374307;28;20037;-88
2022/04/16 14:39:44;;;;;;;0.50;0.10;;;20.30;32.60;;;;;;10365089;28;20082;-89
2022/04/16 14:44:51;;;;;;;0.32;0.10;;;20.30;31.90;;;;;;10382574;28;20057;-88
2022/04/16 14:49:53;;;;;;;0.32;0.10;;;20.30;32.70;;;;;;10350442;28;20523;-88
2022/04/16 14:54:56;;;;;;;0.50;0.15;;;20.30;34.70;;;;;;10368254;28;20124;-88
2022/04/16 15:00:08;;;;;;;1.15;0.10;;;20.20;31.10;;;;;;10395969;28;20056;-88
2022/04/16 15:05:10;;;;;;;0.25;0.10;;;20.40;31.30;;;;;;10373771;28;20060;-87
2022/04/16 15:10:12;;;;;;;0.38;0.10;;;20.40;32.20;;;;;;10375914;28;20117;-88
2022/04/16 15:15:14;;;;;;;0.40;0.13;;;20.40;32.30;;;;;;10363608;28;20047;-89
2022/04/16 15:20:21;;;;;;;0.45;0.10;;;20.10;32.30;;;;;;10371941;28;20532;-89
2022/04/16 15:25:23;;;;;;;0.20;0.10;;;19.80;33.30;;;;;;10375393;28;20054;-89
2022/04/16 15:30:25;;;;;;;0.55;0.10;;;19.80;31.10;;;;;;10408082;28;20042;-89
2022/04/16 15:35:29;;;;;;;0.10;0.10;;;19.90;31.00;;;;;;10346464;28;20045;-88
2022/04/16 15:40:31;;;;;;;3.03;0.20;;;19.90;31.20;;;;;;10409701;28;20041;-91
2022/04/16 15:45:33;;;;;;;1.83;0.20;;;19.50;32.40;;;;;;10200008;28;20051;-90
2022/04/16 15:50:35;;;;;;;0.15;0.10;;;19.40;32.50;;;;;;10373617;28;20045;-90
2022/04/16 15:55:37;;;;;;;6.35;0.10;;;19.30;34.70;;;;;;10376800;28;20523;-91
2022/04/16 16:00:39;;;;;;;0.77;0.13;;;19.00;33.20;;;;;;10403016;28;20053;-91
2022/04/16 16:05:42;;;;;;;3.03;0.10;;;18.90;33.70;;;;;;10311944;28;20042;-91
2022/04/16 16:10:44;;;;;;;0.10;0.10;;;18.80;32.40;;;;;;10398459;28;20084;-90
2022/04/16 16:15:46;;;;;;;1.02;0.10;;;18.70;32.90;;;;;;10369088;28;20067;-89
2022/04/16 16:20:49;;;;;;;0.65;0.10;;;18.50;33.00;;;;;;10332619;28;20034;-90
2022/04/16 16:25:52;;;;;;;1.20;0.10;;;18.50;33.50;;;;;;10385370;28;20060;-90
2022/04/16 16:30:55;;;;;;;0.80;0.20;;;18.20;33.80;;;;;;10358095;28;20041;-91
2022/04/16 16:36:03;;;;;;;0.70;0.35;;;17.80;33.50;;;;;;10346220;28;20052;-88
2022/04/16 16:41:08;;;;;;;2.78;0.30;;;17.70;34.40;;;;;;10370920;28;20508;-89
2022/04/16 16:46:14;;;;;;;0.70;0.20;;;17.60;35.40;;;;;;10318341;28;20119;-89
2022/04/16 16:51:18;;;;;;;0.30;0.10;;;17.60;34.30;;;;;;10349950;28;20049;-89
2022/04/16 16:56:23;;;;;;;0.40;0.20;;;17.50;34.50;;;;;;10355938;28;20042;-90
2022/04/16 17:01:25;;;;;;;0.20;0.10;;;17.50;35.60;;;;;;10382763;28;20056;-88
2022/04/16 17:06:31;;;;;;;0.20;0.20;;;17.10;35.70;;;;;;10373989;28;20097;-89
2022/04/16 17:11:33;;;;;;;2.33;0.50;;;17.10;35.90;;;;;;10371519;28;20049;-88
2022/04/16 17:21:56;;;;;;;1.42;0.20;;;16.90;36.30;;;;;;10384068;28;20426;-89
2022/04/16 17:26:59;;;;;;;1.05;0.20;;;16.70;36.80;;;;;;10390735;28;20106;-88
2022/04/16 17:32:05;;;;;;;0.88;0.20;;;16.40;37.70;;;;;;10382378;28;20050;-90
2022/04/16 17:37:07;;;;;;;0.43;0.20;;;15.90;37.40;;;;;;10386837;28;20057;-90
2022/04/16 17:42:09;;;;;;;0.35;0.15;;;15.60;38.70;;;;;;10377270;28;20046;-89
2022/04/16 17:47:13;;;;;;;12.02;3.40;;;15.30;40.90;;;;;;10374223;28;20049;-89
2022/04/16 17:52:17;;;;;;;2.45;0.60;;;15.10;41.10;;;;;;10391814;28;20052;-90
2022/04/16 17:57:18;;;;;;;0.75;0.30;;;14.80;42.50;;;;;;10399064;28;20077;-89
2022/04/16 18:02:21;;;;;;;0.40;0.20;;;14.60;43.10;;;;;;10369522;28;20041;-90
2022/04/16 18:07:23;;;;;;;0.77;0.20;;;14.30;42.90;;;;;;10406962;28;20049;-88
2022/04/16 18:12:25;;;;;;;0.60;0.30;;;14.10;42.40;;;;;;10383494;28;20041;-88
2022/04/16 18:17:30;;;;;;;2.75;0.28;;;13.90;43.40;;;;;;10371727;28;20073;-89
2022/04/16 18:22:32;;;;;;;0.98;0.32;;;13.60;43.40;;;;;;10374220;28;20053;-90
2022/04/16 18:27:35;;;;;;;1.08;0.40;;;13.50;44.50;;;;;;10399518;28;20053;-87
2022/04/16 18:32:38;;;;;;;2.65;0.63;;;13.20;44.60;;;;;;10392486;28;20045;-88
2022/04/16 18:37:40;;;;;;;1.88;0.40;;;13.00;45.20;;;;;;10411746;28;21081;-87
2022/04/16 18:42:44;;;;;;;1.70;0.50;;;12.70;45.60;;;;;;10366062;28;20042;-86
2022/04/16 18:47:46;;;;;;;1.80;0.50;;;12.50;46.50;;;;;;10395178;28;20076;-86
2022/04/16 18:52:48;;;;;;;2.03;0.50;;;12.30;47.50;;;;;;10375003;28;20056;-87
2022/04/16 18:57:50;;;;;;;2.03;0.73;;;12.00;48.60;;;;;;10388874;28;20049;-86
2022/04/16 19:08:18;;;;;;;1.38;0.60;;;11.60;49.40;;;;;;10388056;28;20080;-87
2022/04/16 19:13:22;;;;;;;0.85;0.40;;;11.40;50.60;;;;;;10404859;28;20050;-87
2022/04/16 19:18:25;;;;;;;0.88;0.50;;;11.20;51.10;;;;;;10370713;28;20051;-87
2022/04/16 19:23:26;;;;;;;1.35;0.80;;;11.00;52.00;;;;;;10397628;28;20048;-87
2022/04/16 19:28:29;;;;;;;3.95;0.90;;;10.80;52.40;;;;;;10392827;28;20049;-87
2022/04/16 19:33:31;;;;;;;2.00;0.70;;;10.70;52.80;;;;;;10376302;28;20046;-87
2022/04/16 19:38:34;;;;;;;1.75;0.60;;;10.50;53.20;;;;;;10390192;28;20125;-87
2022/04/16 19:43:37;;;;;;;2.13;1.10;;;10.40;53.70;;;;;;10381588;28;20081;-87
2022/04/16 19:48:39;;;;;;;1.58;0.73;;;10.30;54.40;;;;;;10365144;28;20061;-87
2022/04/16 19:53:42;;;;;;;1.65;0.80;;;10.20;55.00;;;;;;10402456;28;20054;-86
2022/04/16 19:58:44;;;;;;;2.72;1.17;;;10.10;55.40;;;;;;10369341;28;20053;-87
2022/04/16 20:03:46;;;;;;;1.30;0.65;;;9.90;55.90;;;;;;10399214;28;20045;-87
2022/04/16 20:14:09;;;;;;;4.95;1.85;;;9.70;57.10;;;;;;10374329;28;20041;-87
2022/04/16 20:19:13;;;;;;;3.47;1.38;;;9.60;57.20;;;;;;10376433;28;20034;-87
2022/04/16 20:24:15;;;;;;;5.65;2.10;;;9.50;57.40;;;;;;10382860;28;20136;-88
2022/04/16 20:29:17;;;;;;;4.05;2.30;;;9.40;57.70;;;;;;10364156;28;20062;-86
2022/04/16 20:34:20;;;;;;;1.70;0.85;;;9.30;58.60;;;;;;10382415;28;20079;-87
2022/04/16 20:45:18;;;;;;;1.45;0.70;;;9.30;59.10;;;;;;10381348;28;20046;-87
2022/04/16 20:50:13;;;;;;;2.28;0.80;;;9.00;60.00;;;;;;10404838;28;20053;-87
2022/04/16 20:55:15;;;;;;;1.35;0.65;;;8.90;60.40;;;;;;10366620;28;20052;-86
2022/04/16 21:00:17;;;;;;;1.70;0.90;;;8.70;60.40;;;;;;10387814;28;20133;-87
2022/04/16 21:05:20;;;;;;;1.25;0.63;;;8.70;60.70;;;;;;10372982;28;20089;-86
2022/04/16 21:10:25;;;;;;;2.33;1.05;;;8.60;60.90;;;;;;10367312;28;20055;-87
2022/04/16 21:15:28;;;;;;;1.95;1.00;;;8.50;60.90;;;;;;10322590;28;20046;-86
2022/04/16 21:20:31;;;;;;;2.03;0.93;;;8.50;60.80;;;;;;10352959;28;20080;-86
2022/04/16 21:25:34;;;;;;;2.90;0.85;;;8.40;61.50;;;;;;10383032;28;20068;-88
2022/04/16 21:30:37;;;;;;;2.35;0.95;;;8.40;62.10;;;;;;10373131;28;20077;-86
2022/04/16 21:35:40;;;;;;;3.92;1.30;;;8.30;62.20;;;;;;10346060;28;20057;-86
2022/04/16 21:40:42;;;;;;;5.20;1.15;;;8.20;62.60;;;;;;10369199;28;21219;-87
2022/04/16 21:45:44;;;;;;;1.33;0.93;;;8.10;63.00;;;;;;10361563;28;20057;-87
2022/04/16 21:50:47;;;;;;;1.65;0.95;;;8.00;63.20;;;;;;10375684;28;20089;-87
2022/04/16 21:55:49;;;;;;;3.63;1.08;;;8.00;63.40;;;;;;10381831;28;20081;-87
2022/04/16 22:01:04;;;;;;;1.63;1.13;;;8.00;63.50;;;;;;10405858;28;20045;-88
2022/04/16 22:06:07;;;;;;;2.13;1.20;;;8.00;63.60;;;;;;10369417;28;20061;-87
2022/04/16 22:11:09;;;;;;;2.45;1.10;;;7.90;64.30;;;;;;10386922;28;20049;-88
2022/04/16 22:16:12;;;;;;;1.50;0.80;;;7.80;64.00;;;;;;10388264;28;20053;-89
2022/04/16 22:21:13;;;;;;;3.63;1.10;;;7.70;63.80;;;;;;10363731;28;20072;-88
2022/04/16 22:26:16;;;;;;;2.03;1.10;;;7.70;64.10;;;;;;10380012;28;20053;-88
2022/04/16 22:31:20;;;;;;;2.65;1.10;;;7.60;64.30;;;;;;10391494;28;20053;-87
2022/04/16 22:36:22;;;;;;;2.45;1.13;;;7.60;64.50;;;;;;10396994;28;20045;-86
2022/04/16 22:41:24;;;;;;;1.88;0.95;;;7.50;64.50;;;;;;10372287;28;20049;-87
2022/04/16 22:46:26;;;;;;;2.88;1.05;;;7.40;64.40;;;;;;10347635;28;20069;-87
2022/04/16 22:51:28;;;;;;;2.60;1.13;;;7.40;64.90;;;;;;10344223;28;20060;-87
2022/04/16 22:56:30;;;;;;;2.03;1.10;;;7.30;65.20;;;;;;10352201;28;20115;-88
2022/04/16 23:01:31;;;;;;;3.45;1.35;;;7.20;65.70;;;;;;10344985;28;20055;-86
2022/04/16 23:06:33;;;;;;;4.18;1.80;;;7.10;66.40;;;;;;10344140;28;20037;-89
2022/04/16 23:11:36;;;;;;;2.17;1.40;;;7.00;67.20;;;;;;10336240;28;20056;-88
2022/04/16 23:16:38;;;;;;;1.88;1.02;;;6.90;67.60;;;;;;10335824;28;20054;-88
2022/04/16 23:21:41;;;;;;;6.65;1.10;;;6.90;67.40;;;;;;10332764;28;20406;-89
2022/04/16 23:26:43;;;;;;;3.70;1.20;;;6.90;67.40;;;;;;10347100;28;20500;-86
2022/04/16 23:31:47;;;;;;;1.50;0.90;;;6.90;66.90;;;;;;10340730;28;20060;-86
2022/04/16 23:36:49;;;;;;;2.63;1.35;;;6.90;66.90;;;;;;10324883;28;20052;-86
2022/04/16 23:41:50;;;;;;;2.25;0.70;;;6.80;67.50;;;;;;10326083;28;20136;-86
2022/04/16 23:46:55;;;;;;;0.80;0.80;;;6.90;66.30;;;;;;10333088;28;20050;-86
2022/04/16 23:51:57;;;;;;;2.50;1.23;;;6.90;66.50;;;;;;10342308;28;20141;-86
2022/04/16 23:56:59;;;;;;;2.35;1.20;;;6.90;66.90;;;;;;10342282;28;20041;-86
